Time;durP1;ratioP1;P1;durP2;ratioP2;P2;SDS_P1;SDS_P2;PMS_P1;PMS_P2;Temp;Humidity;BMP_temperature;BMP_pressure;BME280_temperature;BME280_humidity;BME280_pressure;Samples;Min_cycle;Max_cycle;Signal;HPM_P1;HPM_P2
2022/04/19 00:00:33;;;;;;;;;;;8.40;99.90;;;;;;5049991;28;19932;-71
2022/04/19 00:03:02;;;;;;;;;;;8.30;99.90;;;;;;5050376;28;19924;-71
2022/04/19 00:05:29;;;;;;;;;;;8.20;99.90;;;;;;5049705;28;19925;-71
2022/04/19 00:07:55;;;;;;;;;;;8.10;99.90;;;;;;5050389;28;19925;-71
2022/04/19 00:10:23;;;;;;;;;;;8.00;99.90;;;;;;5051870;28;19979;-71
2022/04/19 00:12:50;;;;;;;;;;;8.00;99.90;;;;;;5056417;28;19932;-71
2022/04/19 00:15:18;;;;;;;;;;;7.90;99.90;;;;;;5055174;28;19924;-71
2022/04/19 00:17:45;;;;;;;;;;;7.80;99.90;;;;;;5057727;28;20350;-71
2022/04/19 00:20:11;;;;;;;;;;;7.70;99.90;;;;;;5052687;28;20351;-71
2022/04/19 00:22:39;;;;;;;;;;;7.70;99.90;;;;;;5055788;28;20391;-71
2022/04/19 00:25:07;;;;;;;;;;;7.80;99.90;;;;;;5056015;28;19968;-71
2022/04/19 00:27:34;;;;;;;;;;;7.70;99.90;;;;;;5058888;28;20339;-71
2022/04/19 00:30:01;;;;;;;;;;;7.60;99.90;;;;;;5065413;28;20453;-71
2022/04/19 00:32:29;;;;;;;;;;;7.50;99.90;;;;;;5059282;28;19925;-71
2022/04/19 00:34:56;;;;;;;;;;;7.50;99.90;;;;;;5053656;28;20359;-71
2022/04/19 00:37:23;;;;;;;;;;;7.50;99.90;;;;;;5049646;28;19924;-71
2022/04/19 00:39:50;;;;;;;;;;;7.40;99.90;;;;;;5049483;28;19924;-71
2022/04/19 00:42:17;;;;;;;;;;;7.40;99.90;;;;;;5049784;28;19924;-71
2022/04/19 00:44:44;;;;;;;;;;;7.40;99.90;;;;;;5049257;28;19925;-71
2022/04/19 00:47:12;;;;;;;;;;;7.40;99.90;;;;;;5049564;28;19928;-71
2022/04/19 00:49:43;;;;;;;;;;;7.40;99.90;;;;;;5049526;28;19925;-71
2022/04/19 00:52:11;;;;;;;;;;;7.40;99.90;;;;;;5049707;28;19932;-71
2022/04/19 00:54:41;;;;;;;;;;;7.40;99.90;;;;;;5049380;28;19925;-69
2022/04/19 00:57:09;;;;;;;;;;;7.40;99.90;;;;;;5049405;28;19924;-70
2022/04/19 00:59:38;;;;;;;;;;;7.40;99.90;;;;;;5049021;28;19931;-71
2022/04/19 01:02:05;;;;;;;;;;;7.30;99.90;;;;;;5054804;28;19925;-71
2022/04/19 01:04:33;;;;;;;;;;;7.30;99.90;;;;;;5054169;28;19932;-71
2022/04/19 01:07:02;;;;;;;;;;;7.20;99.90;;;;;;5054505;28;19932;-71
2022/04/19 01:09:28;;;;;;;;;;;7.10;99.90;;;;;;5054027;28;19925;-71
2022/04/19 01:14:41;;;;;;;;;;;6.90;99.90;;;;;;5054177;28;20241;-71
2022/04/19 01:17:10;;;;;;;;;;;6.90;99.90;;;;;;5054549;28;20541;-71
2022/04/19 01:19:41;;;;;;;;;;;6.80;99.90;;;;;;5053753;28;19932;-71
2022/04/19 01:22:16;;;;;;;;;;;6.80;99.90;;;;;;5054420;28;19924;-71
2022/04/19 01:24:45;;;;;;;;;;;6.80;99.90;;;;;;5054134;28;19931;-70
2022/04/19 01:27:14;;;;;;;;;;;6.70;99.90;;;;;;5054061;28;19932;-71
2022/04/19 01:29:44;;;;;;;;;;;6.60;99.90;;;;;;5054109;28;20380;-71
2022/04/19 01:32:13;;;;;;;;;;;6.60;99.90;;;;;;5053897;28;19932;-71
2022/04/19 01:34:40;;;;;;;;;;;6.50;99.90;;;;;;5053732;28;19960;-71
2022/04/19 01:37:15;;;;;;;;;;;6.50;99.90;;;;;;5053404;28;19975;-71
2022/04/19 01:42:33;;;;;;;;;;;6.50;99.90;;;;;;5053809;28;19924;-71
2022/04/19 01:45:03;;;;;;;;;;;6.40;99.90;;;;;;5053743;28;19925;-71
2022/04/19 01:47:31;;;;;;;;;;;6.40;99.90;;;;;;5053806;28;19931;-71
2022/04/19 01:50:00;;;;;;;;;;;6.40;99.90;;;;;;5053527;28;20107;-71
2022/04/19 01:52:28;;;;;;;;;;;6.30;99.90;;;;;;5053929;28;19925;-71
2022/04/19 01:54:58;;;;;;;;;;;6.30;99.90;;;;;;5053365;28;19925;-71
2022/04/19 01:57:30;;;;;;;;;;;6.30;99.90;;;;;;5060223;28;20312;-71
2022/04/19 01:59:57;;;;;;;;;;;6.30;99.90;;;;;;5066138;28;19925;-71
2022/04/19 02:02:43;;;;;;;;;;;6.30;99.90;;;;;;5054944;28;20427;-71
2022/04/19 02:05:10;;;;;;;;;;;6.20;99.90;;;;;;5053408;28;20024;-71
2022/04/19 02:07:38;;;;;;;;;;;6.20;99.90;;;;;;5053345;28;20390;-71
2022/04/19 02:10:09;;;;;;;;;;;6.20;99.90;;;;;;5053376;28;19925;-71
2022/04/19 02:12:36;;;;;;;;;;;6.10;99.90;;;;;;5057381;28;20019;-71
2022/04/19 02:15:23;;;;;;;;;;;6.10;99.90;;;;;;5063102;28;19988;-71
2022/04/19 02:17:53;;;;;;;;;;;6.10;99.90;;;;;;5052793;28;20019;-71
2022/04/19 02:20:20;;;;;;;;;;;6.00;99.90;;;;;;5052922;28;19951;-71
2022/04/19 02:22:47;;;;;;;;;;;6.00;99.90;;;;;;5068917;28;19929;-71
2022/04/19 02:25:16;;;;;;;;;;;5.90;99.90;;;;;;5053046;28;19932;-71
2022/04/19 02:27:44;;;;;;;;;;;5.80;99.90;;;;;;5069357;28;19971;-71
2022/04/19 02:30:15;;;;;;;;;;;5.70;99.90;;;;;;5069682;28;19932;-71
2022/04/19 02:32:47;;;;;;;;;;;5.60;99.90;;;;;;5069836;28;20380;-71
2022/04/19 02:35:15;;;;;;;;;;;5.70;99.90;;;;;;5069395;28;19924;-71
2022/04/19 02:37:47;;;;;;;;;;;5.70;99.90;;;;;;5069643;28;19940;-71
2022/04/19 02:40:14;;;;;;;;;;;5.60;99.90;;;;;;5069222;28;19968;-71
2022/04/19 02:42:42;;;;;;;;;;;5.60;99.90;;;;;;5069253;28;19924;-71
2022/04/19 02:45:12;;;;;;;;;;;5.50;99.90;;;;;;5069631;28;19925;-71
2022/04/19 02:47:42;;;;;;;;;;;5.50;99.90;;;;;;5069079;28;19932;-72
2022/04/19 02:50:09;;;;;;;;;;;5.50;99.90;;;;;;5069308;28;20509;-71
2022/04/19 02:52:36;;;;;;;;;;;5.40;99.90;;;;;;5069098;28;19925;-71
2022/04/19 02:55:03;;;;;;;;;;;5.40;99.90;;;;;;5069152;28;20296;-69
2022/04/19 02:57:30;;;;;;;;;;;5.30;99.90;;;;;;5068898;28;19926;-70
2022/04/19 02:59:58;;;;;;;;;;;5.30;99.90;;;;;;5069247;28;20384;-71
2022/04/19 03:02:25;;;;;;;;;;;5.30;99.90;;;;;;5069251;28;19947;-70
2022/04/19 03:04:53;;;;;;;;;;;5.30;99.90;;;;;;5068977;28;19925;-70
2022/04/19 03:07:20;;;;;;;;;;;5.30;99.90;;;;;;5069075;28;19931;-70
2022/04/19 03:09:47;;;;;;;;;;;5.40;99.90;;;;;;5068836;28;19925;-70
2022/04/19 03:12:15;;;;;;;;;;;5.40;99.90;;;;;;5068668;28;19932;-70
2022/04/19 03:14:58;;;;;;;;;;;5.40;99.90;;;;;;5068749;28;19947;-70
2022/04/19 03:17:25;;;;;;;;;;;5.40;99.90;;;;;;5068677;28;20007;-71
2022/04/19 03:19:52;;;;;;;;;;;5.30;99.90;;;;;;5068304;28;19931;-70
2022/04/19 03:22:18;;;;;;;;;;;5.20;99.90;;;;;;5068810;28;19929;-70
2022/04/19 03:27:43;;;;;;;;;;;5.10;99.90;;;;;;5091046;23;19921;-68
2022/04/19 03:30:18;;;;;;;;;;;5.00;99.90;;;;;;5030349;28;19932;-69
2022/04/19 03:32:45;;;;;;;;;;;5.00;99.90;;;;;;5030900;28;20048;-70
2022/04/19 03:35:12;;;;;;;;;;;4.90;99.90;;;;;;5030462;28;20032;-70
2022/04/19 03:37:39;;;;;;;;;;;4.90;99.90;;;;;;5029475;28;19925;-70
2022/04/19 03:40:07;;;;;;;;;;;4.90;99.90;;;;;;5011030;28;19933;-70
2022/04/19 03:42:35;;;;;;;;;;;4.90;99.90;;;;;;5011088;28;20020;-68
2022/04/19 03:45:02;;;;;;;;;;;4.90;99.90;;;;;;5011135;28;19929;-68
2022/04/19 03:47:31;;;;;;;;;;;4.90;99.90;;;;;;5011184;28;20023;-70
2022/04/19 03:49:59;;;;;;;;;;;4.90;99.90;;;;;;5010937;28;20016;-70
2022/04/19 03:52:25;;;;;;;;;;;4.90;99.90;;;;;;5010882;28;19952;-68
2022/04/19 03:54:52;;;;;;;;;;;4.90;99.90;;;;;;5010808;28;19930;-68
2022/04/19 03:57:19;;;;;;;;;;;4.80;99.90;;;;;;5010997;28;19954;-70
2022/04/19 03:59:47;;;;;;;;;;;4.80;99.90;;;;;;5010749;28;19979;-69
2022/04/19 04:02:15;;;;;;;;;;;4.80;99.90;;;;;;5011216;28;19925;-70
2022/04/19 04:04:43;;;;;;;;;;;4.70;99.90;;;;;;5010764;28;19929;-70
2022/04/19 04:07:10;;;;;;;;;;;4.70;99.90;;;;;;5011109;28;19932;-70
2022/04/19 04:09:37;;;;;;;;;;;4.70;99.90;;;;;;5010337;28;20352;-70
2022/04/19 04:12:05;;;;;;;;;;;4.60;99.90;;;;;;5010612;28;19933;-70
2022/04/19 04:14:32;;;;;;;;;;;4.60;99.90;;;;;;5010527;28;19949;-70
2022/04/19 04:16:59;;;;;;;;;;;4.60;99.90;;;;;;5010858;28;19948;-70
2022/04/19 04:19:27;;;;;;;;;;;4.60;99.90;;;;;;5010444;28;20385;-70
2022/04/19 04:21:55;;;;;;;;;;;4.60;99.90;;;;;;5010491;28;19971;-71
2022/04/19 04:24:23;;;;;;;;;;;4.50;99.90;;;;;;5010750;28;19926;-70
2022/04/19 04:26:50;;;;;;;;;;;4.50;99.90;;;;;;5010520;28;19929;-70
2022/04/19 04:29:20;;;;;;;;;;;4.50;99.90;;;;;;5010408;28;19925;-70
2022/04/19 04:31:49;;;;;;;;;;;4.50;99.90;;;;;;5010560;28;20012;-69
2022/04/19 04:34:18;;;;;;;;;;;4.50;99.90;;;;;;5010458;28;20021;-69
2022/04/19 04:36:46;;;;;;;;;;;4.50;99.90;;;;;;5009386;28;19926;-70
2022/04/19 04:39:19;;;;;;;;;;;4.40;99.90;;;;;;5010105;28;20024;-69
2022/04/19 04:42:09;;;;;;;;;;;4.40;99.90;;;;;;5011260;28;19933;-70
2022/04/19 04:44:36;;;;;;;;;;;4.40;99.90;;;;;;5010133;28;19965;-70
2022/04/19 04:49:48;;;;;;;;;;;4.40;99.90;;;;;;5010034;28;19933;-70
2022/04/19 04:52:19;;;;;;;;;;;4.40;99.90;;;;;;5010671;28;19963;-74
2022/04/19 04:54:50;;;;;;;;;;;4.40;99.90;;;;;;5010171;28;19948;-71
2022/04/19 04:57:26;;;;;;;;;;;4.30;99.90;;;;;;5010350;28;19933;-72
2022/04/19 04:59:54;;;;;;;;;;;4.30;99.90;;;;;;5009772;28;19929;-72
2022/04/19 05:02:23;;;;;;;;;;;4.20;99.90;;;;;;5005340;28;19952;-69
2022/04/19 05:04:51;;;;;;;;;;;4.10;99.90;;;;;;5003107;28;20390;-73
2022/04/19 05:07:18;;;;;;;;;;;4.00;99.90;;;;;;5009107;28;19944;-70
2022/04/19 05:09:51;;;;;;;;;;;4.00;99.90;;;;;;5009945;28;19936;-69
2022/04/19 05:12:18;;;;;;;;;;;4.00;99.90;;;;;;5009906;28;19925;-70
2022/04/19 05:14:45;;;;;;;;;;;4.10;99.90;;;;;;5009826;28;19925;-70
2022/04/19 05:17:12;;;;;;;;;;;4.10;99.90;;;;;;5010250;28;19926;-70
2022/04/19 05:19:42;;;;;;;;;;;4.20;99.90;;;;;;5003478;28;19934;-70
2022/04/19 05:22:10;;;;;;;;;;;4.30;99.90;;;;;;4990868;28;19968;-70
2022/04/19 05:24:37;;;;;;;;;;;4.40;99.90;;;;;;4990324;28;19926;-70
2022/04/19 05:27:06;;;;;;;;;;;4.50;99.90;;;;;;4990380;28;19972;-71
2022/04/19 05:29:35;;;;;;;;;;;4.70;99.90;;;;;;4990153;28;19933;-69
2022/04/19 05:32:02;;;;;;;;;;;4.80;99.90;;;;;;4990363;28;20305;-70
2022/04/19 05:34:29;;;;;;;;;;;4.90;99.90;;;;;;4990147;28;19933;-70
2022/04/19 05:36:55;;;;;;;;;;;5.00;99.90;;;;;;4997992;28;19926;-70
2022/04/19 05:39:22;;;;;;;;;;;5.10;99.90;;;;;;5009599;28;20436;-70
2022/04/19 05:41:49;;;;;;;;;;;5.20;99.90;;;;;;5026209;28;19926;-70
2022/04/19 05:44:18;;;;;;;;;;;5.30;99.90;;;;;;5026012;28;19925;-70
2022/04/19 05:46:45;;;;;;;;;;;5.40;99.90;;;;;;5026381;28;19957;-70
2022/04/19 05:49:12;;;;;;;;;;;5.50;99.90;;;;;;5013107;28;19925;-70
2022/04/19 05:51:42;;;;;;;;;;;5.60;99.90;;;;;;5013560;28;19957;-70
2022/04/19 05:54:09;;;;;;;;;;;5.70;99.90;;;;;;5012894;28;19925;-71
2022/04/19 05:56:36;;;;;;;;;;;5.80;99.90;;;;;;5013330;28;20048;-71
2022/04/19 05:59:03;;;;;;;;;;;5.90;99.90;;;;;;5012985;28;19925;-71
2022/04/19 06:04:51;;;;;;;;;;;5.90;99.90;;;;;;5012719;28;20325;-70
2022/04/19 06:07:03;;;;;;;;;;;6.00;99.90;;;;;;5029763;28;19928;-70
2022/04/19 06:09:31;;;;;;;;;;;6.10;99.90;;;;;;5012279;28;20306;-71
2022/04/19 06:11:58;;;;;;;;;;;6.20;99.90;;;;;;5012522;28;19926;-73
2022/04/19 06:14:25;;;;;;;;;;;6.30;99.90;;;;;;5025464;28;20028;-71
2022/04/19 06:16:54;;;;;;;;;;;6.40;99.90;;;;;;5029139;28;19925;-71
2022/04/19 06:19:22;;;;;;;;;;;6.50;99.90;;;;;;5012291;28;19976;-71
2022/04/19 06:21:49;;;;;;;;;;;6.60;99.90;;;;;;5028673;28;19957;-71
2022/04/19 06:24:16;;;;;;;;;;;6.80;99.90;;;;;;5016102;28;19926;-71
2022/04/19 06:26:44;;;;;;;;;;;7.00;99.90;;;;;;5025564;28;19937;-70
2022/04/19 06:29:19;;;;;;;;;;;7.20;99.90;;;;;;5028546;28;20028;-71
2022/04/19 06:32:00;;;;;;;;;;;7.30;99.90;;;;;;5012732;28;19925;-71
2022/04/19 06:34:38;;;;;;;;;;;7.50;99.90;;;;;;5012723;28;20405;-70
2022/04/19 06:37:10;;;;;;;;;;;7.70;99.90;;;;;;5029363;28;19926;-71
2022/04/19 06:39:41;;;;;;;;;;;7.80;99.90;;;;;;5012115;28;20012;-71
2022/04/19 06:42:08;;;;;;;;;;;8.00;99.90;;;;;;5028589;28;20460;-71
2022/04/19 06:45:01;;;;;;;;;;;8.10;99.90;;;;;;4999697;28;19933;-71
2022/04/19 06:47:34;;;;;;;;;;;8.30;99.90;;;;;;5011297;28;19961;-70
2022/04/19 06:50:03;;;;;;;;;;;8.40;99.90;;;;;;5030457;28;19926;-71
2022/04/19 06:52:32;;;;;;;;;;;8.60;99.90;;;;;;5011704;28;19968;-70
2022/04/19 06:55:00;;;;;;;;;;;8.80;99.90;;;;;;5028362;28;19932;-72
2022/04/19 06:57:27;;;;;;;;;;;8.90;99.90;;;;;;5011851;28;19925;-71
2022/04/19 06:59:54;;;;;;;;;;;9.00;99.90;;;;;;5009904;28;19929;-71
2022/04/19 07:02:21;;;;;;;;;;;9.20;99.90;;;;;;5006659;28;19976;-71
2022/04/19 07:05:08;;;;;;;;;;;9.30;99.90;;;;;;5009643;28;19932;-71
2022/04/19 07:07:37;;;;;;;;;;;9.50;99.90;;;;;;5011667;28;19929;-70
2022/04/19 07:10:04;;;;;;;;;;;9.60;99.90;;;;;;5010996;28;19933;-71
2022/04/19 07:12:31;;;;;;;;;;;9.70;99.90;;;;;;5008771;28;19929;-70
2022/04/19 07:15:06;;;;;;;;;;;9.80;99.90;;;;;;5011473;28;19929;-70
2022/04/19 07:17:59;;;;;;;;;;;9.90;99.90;;;;;;5011835;28;19932;-71
2022/04/19 07:28:43;;;;;;;;;;;10.40;99.90;;;;;;5017715;28;20008;-71
2022/04/19 07:31:10;;;;;;;;;;;10.60;99.90;;;;;;5008563;28;19925;-71
2022/04/19 07:33:39;;;;;;;;;;;10.50;99.90;;;;;;5008498;28;19925;-71
2022/04/19 07:36:08;;;;;;;;;;;10.60;99.90;;;;;;5022742;28;19926;-71
2022/04/19 07:38:35;;;;;;;;;;;10.80;99.90;;;;;;5011452;28;20380;-71
2022/04/19 07:41:20;;;;;;;;;;;10.90;99.90;;;;;;5027655;28;19925;-71
2022/04/19 07:43:48;;;;;;;;;;;11.00;99.90;;;;;;5011027;28;19956;-71
2022/04/19 07:46:16;;;;;;;;;;;11.00;99.90;;;;;;5011123;28;19971;-71
2022/04/19 07:48:44;;;;;;;;;;;11.10;99.90;;;;;;5026559;28;19932;-71
2022/04/19 07:51:12;;;;;;;;;;;11.20;99.90;;;;;;5010662;28;19930;-71
2022/04/19 07:53:39;;;;;;;;;;;11.30;99.90;;;;;;5010812;28;19972;-71
2022/04/19 07:56:06;;;;;;;;;;;11.40;99.90;;;;;;5027341;28;19933;-71
2022/04/19 07:58:33;;;;;;;;;;;11.40;99.90;;;;;;5007820;28;19926;-71
2022/04/19 08:01:00;;;;;;;;;;;11.50;99.90;;;;;;5003778;28;19925;-72
2022/04/19 08:03:27;;;;;;;;;;;11.60;99.90;;;;;;5009496;28;19929;-70
2022/04/19 08:05:54;;;;;;;;;;;11.70;99.90;;;;;;5011467;28;19925;-70
2022/04/19 08:08:23;;;;;;;;;;;11.80;99.90;;;;;;5046825;28;19971;-71
2022/04/19 08:10:50;;;;;;;;;;;12.00;99.90;;;;;;5039931;28;19933;-70
2022/04/19 08:13:17;;;;;;;;;;;12.10;99.90;;;;;;5026837;28;20312;-71
2022/04/19 08:15:44;;;;;;;;;;;12.20;99.90;;;;;;5021475;28;19940;-70
2022/04/19 08:18:14;;;;;;;;;;;12.40;99.90;;;;;;4998015;28;19926;-71
2022/04/19 08:20:44;;;;;;;;;;;12.60;99.90;;;;;;5008643;28;19926;-71
2022/04/19 08:23:11;;;;;;;;;;;12.80;99.90;;;;;;5009989;28;19975;-71
2022/04/19 08:25:40;;;;;;;;;;;13.00;99.90;;;;;;5010068;28;19925;-71
2022/04/19 08:28:08;;;;;;;;;;;13.00;99.90;;;;;;5009566;28;19926;-71
2022/04/19 08:30:34;;;;;;;;;;;13.10;99.90;;;;;;5009599;28;19926;-71
2022/04/19 08:33:02;;;;;;;;;;;13.20;99.90;;;;;;5017203;28;19926;-70
2022/04/19 08:35:28;;;;;;;;;;;13.30;99.90;;;;;;5000156;28;19933;-70
2022/04/19 08:37:56;;;;;;;;;;;13.50;99.90;;;;;;5009625;28;19925;-72
2022/04/19 08:40:25;;;;;;;;;;;13.70;99.90;;;;;;5022363;28;19960;-71
2022/04/19 08:42:57;;;;;;;;;;;13.90;99.90;;;;;;5004897;28;19925;-71
2022/04/19 08:45:26;;;;;;;;;;;14.00;99.90;;;;;;5009701;28;19968;-71
2022/04/19 08:47:53;;;;;;;;;;;14.10;99.90;;;;;;5010069;28;20376;-71
2022/04/19 08:50:21;;;;;;;;;;;14.10;99.90;;;;;;5009912;28;19925;-70
2022/04/19 08:57:29;;;;;;;;;;;14.20;99.90;;;;;;5005790;28;19933;-71
2022/04/19 08:58:21;;;;;;;;;;;14.30;99.90;;;;;;5010623;28;19926;-71
2022/04/19 09:00:48;;;;;;;;;;;14.40;99.90;;;;;;5007741;28;19933;-71
2022/04/19 09:03:15;;;;;;;;;;;14.40;99.90;;;;;;5006971;28;20348;-71
2022/04/19 09:05:49;;;;;;;;;;;14.50;99.90;;;;;;5004851;28;19937;-72
2022/04/19 09:08:16;;;;;;;;;;;14.50;99.90;;;;;;5017220;28;20039;-71
2022/04/19 09:10:43;;;;;;;;;;;14.70;99.90;;;;;;5008832;28;19931;-71
2022/04/19 09:13:10;;;;;;;;;;;14.70;99.90;;;;;;5006559;28;19973;-71
2022/04/19 09:15:39;;;;;;;;;;;14.80;99.90;;;;;;5012753;28;19929;-71
2022/04/19 09:18:06;;;;;;;;;;;15.00;99.90;;;;;;5015046;28;19929;-68
2022/04/19 09:20:33;;;;;;;;;;;15.10;99.90;;;;;;5005843;28;19932;-70
2022/04/19 09:23:01;;;;;;;;;;;15.30;99.90;;;;;;5009851;28;19926;-70
2022/04/19 09:25:29;;;;;;;;;;;15.30;99.90;;;;;;5008313;28;20369;-70
2022/04/19 09:27:57;;;;;;;;;;;15.40;99.90;;;;;;5010830;28;19953;-71
2022/04/19 09:30:24;;;;;;;;;;;15.50;99.90;;;;;;5012965;28;19937;-69
2022/04/19 09:33:07;;;;;;;;;;;15.60;99.90;;;;;;5010774;28;19941;-70
2022/04/19 09:35:34;;;;;;;;;;;15.60;99.90;;;;;;5027483;28;19925;-70
2022/04/19 09:38:01;;;;;;;;;;;15.60;99.90;;;;;;5012556;28;20350;-70
2022/04/19 09:40:32;;;;;;;;;;;15.70;99.90;;;;;;5012511;28;19925;-69
2022/04/19 09:43:06;;;;;;;;;;;15.80;99.90;;;;;;5006031;28;19925;-69
2022/04/19 09:45:44;;;;;;;;;;;15.90;99.90;;;;;;5015408;28;19925;-70
2022/04/19 09:48:15;;;;;;;;;;;16.00;99.90;;;;;;5005391;28;19933;-70
2022/04/19 09:50:48;;;;;;;;;;;16.10;99.90;;;;;;5008371;28;20358;-70
2022/04/19 09:53:17;;;;;;;;;;;16.30;99.90;;;;;;5010850;28;19936;-69
2022/04/19 09:55:46;;;;;;;;;;;16.30;99.90;;;;;;5007935;28;19925;-69
2022/04/19 09:58:13;;;;;;;;;;;16.40;99.90;;;;;;5010401;28;19933;-70
2022/04/19 10:00:40;;;;;;;;;;;16.60;99.90;;;;;;5005188;28;19926;-70
2022/04/19 10:08:37;;;;;;;;;;;16.90;99.90;;;;;;5012651;28;19925;-71
2022/04/19 10:11:04;;;;;;;;;;;16.80;99.90;;;;;;5009286;28;19960;-71
2022/04/19 10:13:33;;;;;;;;;;;16.90;99.90;;;;;;5012667;28;19925;-70
2022/04/19 10:16:00;;;;;;;;;;;17.10;99.90;;;;;;5013020;28;19980;-71
2022/04/19 10:18:27;;;;;;;;;;;17.30;99.90;;;;;;5012762;28;19933;-71
2022/04/19 10:20:58;;;;;;;;;;;17.40;99.90;;;;;;5011616;28;19926;-70
2022/04/19 10:23:33;;;;;;;;;;;17.30;99.90;;;;;;5012105;28;19929;-71
2022/04/19 10:26:12;;;;;;;;;;;17.40;99.90;;;;;;5016929;28;19929;-70
2022/04/19 10:28:39;;;;;;;;;;;17.50;99.90;;;;;;5009242;28;19926;-69
2022/04/19 10:31:06;;;;;;;;;;;17.60;99.90;;;;;;4992884;28;19981;-69
2022/04/19 10:33:48;;;;;;;;;;;17.80;99.90;;;;;;4992684;28;19930;-70
2022/04/19 10:36:17;;;;;;;;;;;17.90;99.90;;;;;;4993240;28;19991;-70
2022/04/19 10:38:45;;;;;;;;;;;18.10;99.90;;;;;;4992862;28;19973;-69
2022/04/19 10:41:12;;;;;;;;;;;18.10;99.90;;;;;;4993013;28;19926;-70
2022/04/19 10:43:39;;;;;;;;;;;18.30;99.90;;;;;;4992626;28;19949;-70
2022/04/19 10:46:19;;;;;;;;;;;18.30;99.90;;;;;;4992853;28;19925;-70
2022/04/19 10:49:16;;;;;;;;;;;18.50;99.90;;;;;;4992661;28;19926;-70
2022/04/19 10:51:44;;;;;;;;;;;18.50;99.90;;;;;;4991941;28;19930;-70
2022/04/19 10:54:11;;;;;;;;;;;18.50;99.90;;;;;;4992420;28;19980;-70
2022/04/19 10:56:52;;;;;;;;;;;18.50;99.90;;;;;;4992782;28;20459;-70
2022/04/19 10:59:21;;;;;;;;;;;18.70;99.90;;;;;;4991625;28;19930;-70
2022/04/19 11:01:48;;;;;;;;;;;18.80;99.90;;;;;;4992636;28;20405;-70
2022/04/19 11:04:35;;;;;;;;;;;18.90;99.90;;;;;;4992232;28;19929;-70
2022/04/19 11:07:24;;;;;;;;;;;19.00;99.90;;;;;;4992499;28;19925;-70
2022/04/19 11:10:01;;;;;;;;;;;19.20;99.90;;;;;;4999982;28;19930;-70
2022/04/19 11:12:47;;;;;;;;;;;19.30;99.90;;;;;;5011562;28;19952;-70
2022/04/19 11:15:15;;;;;;;;;;;19.40;99.90;;;;;;5028034;28;19925;-73
2022/04/19 11:17:42;;;;;;;;;;;19.60;99.90;;;;;;5001282;28;19925;-73
2022/04/19 11:20:10;;;;;;;;;;;19.70;99.90;;;;;;5004776;28;19961;-72
2022/04/19 11:22:46;;;;;;;;;;;19.90;99.90;;;;;;5007056;28;20360;-72
2022/04/19 11:25:13;;;;;;;;;;;20.00;99.90;;;;;;5011826;28;20022;-72
2022/04/19 11:27:57;;;;;;;;;;;20.10;99.90;;;;;;5011374;28;19925;-72
2022/04/19 11:30:25;;;;;;;;;;;20.30;99.90;;;;;;4977633;28;20008;-72
2022/04/19 11:32:53;;;;;;;;;;;20.60;99.90;;;;;;5002328;28;20401;-73
2022/04/19 11:35:20;;;;;;;;;;;20.80;99.90;;;;;;5010991;28;19933;-72
2022/04/19 11:37:49;;;;;;;;;;;21.00;99.90;;;;;;5002706;28;19932;-72
2022/04/19 11:48:34;;;;;;;;;;;24.60;99.90;;;;;;4991208;28;19922;-70
2022/04/19 11:51:07;;;;;;;;;;;27.20;99.90;;;;;;4991546;28;20374;-72
2022/04/19 11:53:36;;;;;;;;;;;28.50;99.90;;;;;;4991392;28;19926;-70
2022/04/19 11:56:03;;;;;;;;;;;28.50;99.40;;;;;;4991427;28;19926;-72
2022/04/19 11:58:30;;;;;;;;;;;29.50;98.80;;;;;;5001244;28;19929;-71
2022/04/19 12:00:58;;;;;;;;;;;29.70;98.00;;;;;;5020029;28;19975;-71
2022/04/19 12:03:26;;;;;;;;;;;29.80;97.40;;;;;;5010519;28;19925;-71
2022/04/19 12:05:54;;;;;;;;;;;29.90;97.10;;;;;;5010842;28;19932;-72
2022/04/19 12:08:31;;;;;;;;;;;30.20;96.10;;;;;;5010361;28;19975;-72
2022/04/19 12:11:00;;;;;;;;;;;30.50;96.00;;;;;;5010337;28;20405;-72
2022/04/19 12:13:27;;;;;;;;;;;30.00;96.90;;;;;;5020624;28;19932;-71
2022/04/19 12:15:54;;;;;;;;;;;30.20;96.40;;;;;;5009947;28;19926;-72
2022/04/19 12:18:31;;;;;;;;;;;29.80;95.10;;;;;;5026387;28;19925;-72
2022/04/19 12:20:58;;;;;;;;;;;29.10;95.40;;;;;;5013964;28;20355;-72
2022/04/19 12:23:24;;;;;;;;;;;28.70;94.80;;;;;;5039745;28;19926;-73
2022/04/19 12:26:04;;;;;;;;;;;29.10;95.00;;;;;;5009420;28;20301;-73
2022/04/19 12:28:34;;;;;;;;;;;28.70;94.60;;;;;;5026312;28;20344;-72
2022/04/19 12:31:01;;;;;;;;;;;28.70;94.30;;;;;;5010210;28;19929;-72
2022/04/19 12:33:28;;;;;;;;;;;29.00;94.50;;;;;;5040760;28;19929;-71
2022/04/19 12:35:55;;;;;;;;;;;29.10;94.80;;;;;;5046114;28;20352;-72
2022/04/19 12:38:29;;;;;;;;;;;29.60;94.70;;;;;;5034807;28;19988;-72
2022/04/19 12:40:55;;;;;;;;;;;30.30;94.00;;;;;;5004734;28;20286;-73
2022/04/19 12:43:42;;;;;;;;;;;30.60;93.40;;;;;;5009992;28;19926;-72
2022/04/19 12:46:08;;;;;;;;;;;30.90;93.10;;;;;;5009921;28;19937;-72
2022/04/19 12:48:35;;;;;;;;;;;30.40;93.60;;;;;;5006111;28;19933;-72
2022/04/19 12:51:02;;;;;;;;;;;30.70;93.20;;;;;;5009396;28;19929;-73
2022/04/19 12:53:29;;;;;;;;;;;31.20;93.40;;;;;;5007773;28;19929;-73
2022/04/19 12:55:56;;;;;;;;;;;31.20;92.70;;;;;;5012223;28;19925;-72
2022/04/19 12:58:24;;;;;;;;;;;30.50;92.30;;;;;;5014196;28;19925;-72
2022/04/19 13:00:50;;;;;;;;;;;30.40;92.10;;;;;;5015025;28;19976;-72
2022/04/19 13:03:18;;;;;;;;;;;30.20;92.80;;;;;;5015211;28;19929;-72
2022/04/19 13:14:00;;;;;;;;;;;29.90;91.60;;;;;;5031004;28;19928;-72
2022/04/19 13:16:26;;;;;;;;;;;29.50;92.00;;;;;;4995352;28;19932;-72
2022/04/19 13:18:53;;;;;;;;;;;29.40;92.20;;;;;;5014405;28;20363;-72
2022/04/19 13:21:20;;;;;;;;;;;29.30;92.10;;;;;;5024196;28;20416;-72
2022/04/19 13:23:47;;;;;;;;;;;28.20;90.90;;;;;;5012593;28;19925;-72
2022/04/19 13:26:13;;;;;;;;;;;28.00;90.90;;;;;;5030449;28;19933;-72
2022/04/19 13:28:42;;;;;;;;;;;29.00;91.30;;;;;;5012624;28;19925;-72
2022/04/19 13:31:10;;;;;;;;;;;29.30;91.40;;;;;;5013102;28;19925;-73
2022/04/19 13:33:37;;;;;;;;;;;29.50;91.10;;;;;;5013333;28;19926;-73
2022/04/19 13:36:03;;;;;;;;;;;29.90;91.90;;;;;;5029834;28;19926;-73
2022/04/19 13:38:35;;;;;;;;;;;30.00;91.90;;;;;;5029303;28;19929;-72
2022/04/19 13:41:02;;;;;;;;;;;30.30;91.90;;;;;;5013153;28;19951;-72
2022/04/19 13:43:28;;;;;;;;;;;30.20;91.30;;;;;;5029972;28;20073;-72
2022/04/19 13:45:55;;;;;;;;;;;30.20;91.50;;;;;;5013443;28;19926;-72
2022/04/19 13:48:24;;;;;;;;;;;30.10;91.90;;;;;;5013060;28;19925;-72
2022/04/19 13:50:51;;;;;;;;;;;30.30;91.80;;;;;;5012864;28;19933;-72
2022/04/19 13:53:18;;;;;;;;;;;30.30;91.40;;;;;;5013049;28;19973;-73
2022/04/19 13:55:45;;;;;;;;;;;30.30;91.60;;;;;;5029345;28;20401;-72
2022/04/19 13:58:12;;;;;;;;;;;30.40;91.80;;;;;;5029419;28;19925;-73
2022/04/19 14:00:39;;;;;;;;;;;30.50;91.10;;;;;;5029332;28;19925;-72
2022/04/19 14:03:06;;;;;;;;;;;30.60;91.60;;;;;;5012888;28;20421;-72
2022/04/19 14:05:34;;;;;;;;;;;30.10;91.90;;;;;;5029098;28;19925;-73
2022/04/19 14:08:01;;;;;;;;;;;30.20;91.50;;;;;;5012071;28;19969;-71
2022/04/19 14:10:28;;;;;;;;;;;30.20;91.80;;;;;;5029248;28;19926;-72
2022/04/19 14:12:54;;;;;;;;;;;29.50;91.20;;;;;;5029202;28;19972;-72
2022/04/19 14:15:21;;;;;;;;;;;29.30;91.60;;;;;;5028891;28;19930;-72
2022/04/19 14:17:48;;;;;;;;;;;29.30;91.70;;;;;;5012766;28;20385;-73
2022/04/19 14:20:16;;;;;;;;;;;29.00;91.10;;;;;;5028751;28;19925;-72
2022/04/19 14:22:44;;;;;;;;;;;29.20;91.50;;;;;;5010401;28;20400;-72
2022/04/19 14:25:11;;;;;;;;;;;29.20;91.40;;;;;;5012277;28;19926;-72
2022/04/19 14:27:37;;;;;;;;;;;28.90;91.00;;;;;;5012297;28;19933;-73
2022/04/19 14:35:33;;;;;;;;;;;29.10;90.90;;;;;;5004676;28;19959;-72
2022/04/19 14:38:01;;;;;;;;;;;29.50;91.00;;;;;;5012024;28;19960;-72
2022/04/19 14:40:28;;;;;;;;;;;29.00;90.90;;;;;;5012193;28;19933;-72
2022/04/19 14:42:55;;;;;;;;;;;28.70;90.70;;;;;;5010518;28;20017;-72
2022/04/19 14:45:22;;;;;;;;;;;28.70;91.10;;;;;;5011791;28;20016;-72
2022/04/19 14:47:48;;;;;;;;;;;28.90;91.10;;;;;;5012332;28;20281;-72
2022/04/19 14:50:15;;;;;;;;;;;28.70;90.90;;;;;;5011532;28;19929;-72
2022/04/19 14:52:41;;;;;;;;;;;28.50;91.60;;;;;;5011867;28;19933;-72
2022/04/19 14:55:09;;;;;;;;;;;28.50;91.60;;;;;;5028218;28;19921;-72
2022/04/19 14:57:38;;;;;;;;;;;28.50;91.00;;;;;;5011740;28;20429;-72
2022/04/19 15:00:05;;;;;;;;;;;28.90;91.00;;;;;;5019753;28;20020;-72
2022/04/19 15:02:32;;;;;;;;;;;29.30;91.50;;;;;;4997015;28;20439;-72
2022/04/19 15:05:04;;;;;;;;;;;29.10;90.80;;;;;;4991775;28;19926;-73
2022/04/19 15:07:33;;;;;;;;;;;28.90;91.30;;;;;;4992438;28;19926;-72
2022/04/19 15:09:59;;;;;;;;;;;28.80;90.90;;;;;;4992020;28;19925;-73
2022/04/19 15:12:28;;;;;;;;;;;29.00;91.30;;;;;;5010997;28;19930;-73
2022/04/19 15:14:55;;;;;;;;;;;29.30;90.60;;;;;;5019726;28;19926;-73
2022/04/19 15:17:21;;;;;;;;;;;29.20;91.00;;;;;;5008418;28;19925;-73
2022/04/19 15:19:48;;;;;;;;;;;29.40;91.40;;;;;;5002844;28;19933;-73
2022/04/19 15:22:15;;;;;;;;;;;29.40;91.00;;;;;;5011457;28;20019;-73
2022/04/19 15:24:42;;;;;;;;;;;28.80;91.20;;;;;;4993189;28;20025;-73
2022/04/19 15:27:09;;;;;;;;;;;27.60;91.10;;;;;;4991810;28;19930;-74